createdAt,value
2022-12-04T00:00:57.767Z,16.38
2022-12-04T00:01:59.541Z,16.48
2022-12-04T00:03:01.380Z,16.52
2022-12-04T00:04:03.202Z,18.20
2022-12-04T00:05:05.911Z,16.05
2022-12-04T00:06:11.194Z,17.38
2022-12-04T00:07:12.942Z,16.10
2022-12-04T00:08:14.789Z,17.73
2022-12-04T00:09:16.483Z,17.53
2022-12-04T00:10:18.266Z,16.42
2022-12-04T00:11:25.770Z,16.52
2022-12-04T00:12:27.872Z,16.70
2022-12-04T00:13:29.770Z,17.40
2022-12-04T00:14:31.620Z,18.38
2022-12-04T00:15:33.332Z,17.83
2022-12-04T00:16:35.419Z,17.80
2022-12-04T00:17:37.233Z,17.05
2022-12-04T00:18:39.436Z,17.02
2022-12-04T00:19:41.537Z,16.50
2022-12-04T00:20:43.266Z,16.67
2022-12-04T00:21:45.355Z,17.55
2022-12-04T00:22:47.154Z,16.70
2022-12-04T00:23:49.258Z,17.25
2022-12-04T00:24:51.004Z,16.73
2022-12-04T00:25:53.342Z,17.92
2022-12-04T00:26:55.128Z,15.23
2022-12-04T00:27:56.920Z,17.58
2022-12-04T00:28:59.123Z,17.15
2022-12-04T00:30:00.824Z,17.00
2022-12-04T00:31:07.240Z,17.70
2022-12-04T00:32:09.041Z,17.83
2022-12-04T00:33:12.135Z,16.40
2022-12-04T00:34:13.906Z,15.88
2022-12-04T00:35:15.690Z,17.13
2022-12-04T00:36:19.550Z,16.08
2022-12-04T00:37:21.259Z,17.35
2022-12-04T00:38:23.009Z,16.30
2022-12-04T00:39:24.746Z,17.55
2022-12-04T00:40:26.513Z,17.07
2022-12-04T00:41:30.240Z,16.58
2022-12-04T00:42:31.973Z,17.55
2022-12-04T00:43:33.997Z,16.17
2022-12-04T00:44:35.750Z,16.05
2022-12-04T00:45:37.503Z,17.10
2022-12-04T00:46:39.262Z,16.38
2022-12-04T00:47:41.183Z,16.65
2022-12-04T00:48:43.677Z,15.95
2022-12-04T00:49:45.477Z,16.95
2022-12-04T00:50:47.258Z,16.20
2022-12-04T00:51:48.998Z,16.15
2022-12-04T00:52:50.723Z,16.45
2022-12-04T00:53:52.819Z,16.63
2022-12-04T00:54:54.806Z,16.50
2022-12-04T00:55:56.859Z,16.55
2022-12-04T00:56:58.583Z,17.20
2022-12-04T00:58:00.430Z,16.83
2022-12-04T00:59:02.281Z,16.20
2022-12-04T01:00:05.971Z,16.65
2022-12-04T01:01:13.870Z,16.43
2022-12-04T01:02:15.673Z,16.33
2022-12-04T01:03:17.572Z,16.05
2022-12-04T01:04:19.401Z,16.38
2022-12-04T01:05:21.165Z,15.65
2022-12-04T01:06:26.314Z,17.13
2022-12-04T01:07:28.304Z,16.00
2022-12-04T01:08:30.277Z,16.30
2022-12-04T01:09:33.056Z,16.27
2022-12-04T01:10:35.205Z,16.92
2022-12-04T01:11:38.298Z,16.03
2022-12-04T01:12:40.022Z,16.60
2022-12-04T01:13:41.799Z,16.92
2022-12-04T01:14:43.612Z,16.05
2022-12-04T01:15:47.312Z,15.65
2022-12-04T01:16:49.165Z,16.88
2022-12-04T01:17:50.929Z,17.65
2022-12-04T01:18:52.911Z,18.35
2022-12-04T01:19:54.992Z,16.77
2022-12-04T01:20:56.971Z,17.60
2022-12-04T01:21:58.726Z,17.70
2022-12-04T01:23:00.444Z,18.48
2022-12-04T01:24:02.295Z,17.23
2022-12-04T01:25:04.371Z,17.92
2022-12-04T01:26:06.224Z,17.83
2022-12-04T01:27:08.036Z,17.73
2022-12-04T01:28:10.177Z,17.83
2022-12-04T01:29:11.999Z,17.70
2022-12-04T01:30:13.854Z,17.35
2022-12-04T01:31:18.891Z,18.50
2022-12-04T01:32:20.688Z,18.83
2022-12-04T01:33:22.396Z,16.90
2022-12-04T01:34:25.245Z,17.83
2022-12-04T01:35:26.997Z,17.63
2022-12-04T01:36:28.990Z,17.60
2022-12-04T01:37:31.859Z,17.15
2022-12-04T01:38:34.123Z,16.45
2022-12-04T01:39:36.769Z,17.33
2022-12-04T01:40:44.290Z,18.08
2022-12-04T01:41:46.184Z,18.15
2022-12-04T01:42:47.924Z,17.27
2022-12-04T01:44:11.360Z,18.05
2022-12-04T01:45:31.462Z,17.77
2022-12-04T01:46:33.337Z,17.15
2022-12-04T01:47:35.063Z,17.05
2022-12-04T01:48:43.345Z,17.38
2022-12-04T01:49:47.902Z,18.15
2022-12-04T01:50:53.478Z,17.58
2022-12-04T01:52:00.891Z,19.08
2022-12-04T01:53:02.698Z,17.20
2022-12-04T01:54:29.591Z,18.67
2022-12-04T01:55:31.822Z,17.35
2022-12-04T01:56:39.831Z,17.92
2022-12-04T01:57:42.639Z,17.60
2022-12-04T01:58:48.498Z,18.23
2022-12-04T01:59:57.422Z,18.90
2022-12-04T02:01:07.958Z,18.40
2022-12-04T02:02:14.495Z,17.20
2022-12-04T02:03:16.527Z,18.05
2022-12-04T02:04:18.401Z,19.10
2022-12-04T02:05:22.017Z,19.67
2022-12-04T02:06:23.772Z,17.10
2022-12-04T02:07:26.135Z,18.55
2022-12-04T02:08:29.342Z,20.33
2022-12-04T02:09:32.233Z,19.17
2022-12-04T02:11:29.507Z,18.23
2022-12-04T02:12:46.868Z,18.65
2022-12-04T02:13:58.710Z,17.30
2022-12-04T02:15:11.312Z,19.73
2022-12-04T02:16:19.624Z,17.65
2022-12-04T02:17:24.112Z,19.00
2022-12-04T02:18:45.977Z,18.25
2022-12-04T02:19:50.763Z,19.27
2022-12-04T02:21:16.307Z,18.23
2022-12-04T02:22:51.631Z,19.33
2022-12-04T02:24:14.928Z,18.20
2022-12-04T02:25:28.721Z,18.77
2022-12-04T02:26:58.805Z,19.15
2022-12-04T02:28:19.365Z,18.20
2022-12-04T02:29:29.970Z,18.50
2022-12-04T02:30:36.840Z,18.37
2022-12-04T02:31:50.937Z,17.95
2022-12-04T02:33:22.233Z,18.27
2022-12-04T02:34:49.140Z,18.45
2022-12-04T02:36:10.710Z,18.95
2022-12-04T02:37:21.814Z,18.40
2022-12-04T02:38:32.159Z,19.67
2022-12-04T02:39:44.392Z,18.83
2022-12-04T02:40:59.558Z,19.85
2022-12-04T02:42:32.321Z,19.15
2022-12-04T02:43:46.722Z,18.60
2022-12-04T02:44:53.819Z,18.23
2022-12-04T02:46:02.824Z,20.17
2022-12-04T02:47:14.136Z,18.92
2022-12-04T02:48:20.049Z,18.52
2022-12-04T02:49:28.903Z,19.73
2022-12-04T02:50:34.142Z,19.17
2022-12-04T02:51:39.453Z,20.08
2022-12-04T02:52:54.548Z,19.80
2022-12-04T02:54:05.759Z,19.60
2022-12-04T02:55:14.870Z,21.60
2022-12-04T02:56:23.404Z,18.75
2022-12-04T02:57:31.915Z,21.10
2022-12-04T02:58:43.349Z,20.45
2022-12-04T02:59:48.053Z,19.80
2022-12-04T03:00:51.978Z,19.10
2022-12-04T03:02:00.256Z,20.85
2022-12-04T03:03:07.869Z,20.63
2022-12-04T03:04:19.717Z,20.48
2022-12-04T03:05:28.866Z,20.40
2022-12-04T03:06:35.758Z,20.17
2022-12-04T03:07:48.062Z,20.38
2022-12-04T03:09:01.739Z,19.70
2022-12-04T03:10:08.658Z,20.00
2022-12-04T03:11:10.419Z,20.15
2022-12-04T03:12:27.136Z,20.20
2022-12-04T03:13:43.771Z,20.38
2022-12-04T03:15:02.060Z,20.00
2022-12-04T03:16:11.223Z,19.45
2022-12-04T03:17:21.629Z,19.88
2022-12-04T03:18:28.754Z,19.20
2022-12-04T03:19:52.858Z,20.33
2022-12-04T03:21:01.889Z,18.50
2022-12-04T03:22:08.119Z,20.83
2022-12-04T03:23:18.099Z,20.20
2022-12-04T03:24:22.411Z,20.17
2022-12-04T03:25:32.248Z,20.27
2022-12-04T03:26:47.839Z,19.65
2022-12-04T03:27:57.966Z,19.30
2022-12-04T03:29:05.192Z,19.45
2022-12-04T03:30:16.184Z,20.53
2022-12-04T03:31:25.018Z,19.30
2022-12-04T03:32:35.986Z,20.75
2022-12-04T03:33:47.129Z,19.90
2022-12-04T03:35:05.106Z,20.90
2022-12-04T03:36:21.134Z,19.35
2022-12-04T03:37:35.654Z,20.02
2022-12-04T03:38:44.092Z,19.85
2022-12-04T03:40:07.032Z,19.88
2022-12-04T03:41:33.735Z,18.90
2022-12-04T03:42:57.100Z,18.93
2022-12-04T03:44:19.009Z,20.08
2022-12-04T03:45:28.455Z,17.80
2022-12-04T03:46:39.703Z,19.77
2022-12-04T03:48:23.393Z,19.52
2022-12-04T03:49:55.437Z,19.63
2022-12-04T03:51:17.965Z,18.15
2022-12-04T03:52:34.878Z,18.50
2022-12-04T03:54:00.567Z,19.58
2022-12-04T03:55:08.658Z,19.05
2022-12-04T03:56:21.509Z,19.27
2022-12-04T03:57:29.158Z,18.73
2022-12-04T03:58:34.167Z,19.05
2022-12-04T03:59:42.545Z,19.40
2022-12-04T04:00:47.387Z,21.15
2022-12-04T04:01:51.177Z,20.13
2022-12-04T04:02:53.144Z,19.15
2022-12-04T04:03:57.851Z,20.67
2022-12-04T04:05:01.428Z,20.85
2022-12-04T04:06:12.501Z,21.58
2022-12-04T04:07:40.318Z,20.07
2022-12-04T04:08:47.135Z,20.02
2022-12-04T04:09:53.684Z,19.63
2022-12-04T04:11:25.088Z,21.05
2022-12-04T04:12:32.975Z,19.98
2022-12-04T04:14:09.296Z,20.23
2022-12-04T04:15:36.579Z,18.95
2022-12-04T04:17:01.690Z,19.25
2022-12-04T04:18:22.359Z,19.63
2022-12-04T04:19:46.829Z,20.17
2022-12-04T04:21:18.060Z,19.33
2022-12-04T04:22:39.522Z,19.77
2022-12-04T04:24:07.672Z,19.52
2022-12-04T04:25:16.293Z,18.92
2022-12-04T04:26:18.413Z,19.33
2022-12-04T04:27:20.122Z,19.42
2022-12-04T04:28:37.903Z,20.27
2022-12-04T04:29:40.012Z,19.92
2022-12-04T04:30:41.789Z,19.75
2022-12-04T04:31:58.622Z,20.77
2022-12-04T04:33:16.786Z,21.07
2022-12-04T04:34:42.221Z,20.13
2022-12-04T04:35:51.669Z,19.83
2022-12-04T04:37:05.472Z,20.33
2022-12-04T04:38:36.848Z,20.55
2022-12-04T04:39:50.471Z,20.10
2022-12-04T04:41:10.148Z,20.95
2022-12-04T04:42:24.917Z,20.33
2022-12-04T04:43:47.119Z,20.52
2022-12-04T04:45:01.304Z,20.90
2022-12-04T04:46:23.123Z,21.17
2022-12-04T04:48:02.187Z,19.83
2022-12-04T04:49:07.317Z,18.20
2022-12-04T04:50:11.379Z,21.38
2022-12-04T04:51:13.805Z,20.17
2022-12-04T04:52:19.880Z,20.42
2022-12-04T04:53:26.902Z,19.55
2022-12-04T04:54:30.972Z,20.83
2022-12-04T04:55:35.331Z,21.52
2022-12-04T04:56:42.985Z,21.70
2022-12-04T04:57:44.893Z,20.30
2022-12-04T04:58:46.691Z,21.65
2022-12-04T04:59:48.402Z,21.40
2022-12-04T05:01:10.498Z,21.88
2022-12-04T05:02:12.339Z,22.08
2022-12-04T05:03:14.312Z,21.80
2022-12-04T05:04:16.133Z,21.05
2022-12-04T05:05:18.170Z,21.73
2022-12-04T05:06:20.011Z,22.23
2022-12-04T05:07:21.777Z,20.58
2022-12-04T05:08:23.832Z,19.80
2022-12-04T05:09:26.382Z,21.60
2022-12-04T05:10:28.131Z,22.02
2022-12-04T05:11:29.945Z,22.35
2022-12-04T05:12:31.978Z,20.98
2022-12-04T05:13:33.697Z,22.20
2022-12-04T05:14:35.468Z,20.10
2022-12-04T05:15:37.242Z,21.60
2022-12-04T05:16:40.659Z,20.88
2022-12-04T05:17:42.582Z,22.02
2022-12-04T05:19:04.862Z,20.87
2022-12-04T05:20:07.178Z,20.40
2022-12-04T05:21:15.976Z,21.80
2022-12-04T05:22:18.231Z,21.83
2022-12-04T05:23:20.027Z,20.33
2022-12-04T05:24:21.740Z,21.92
2022-12-04T05:25:23.887Z,21.05
2022-12-04T05:26:25.934Z,21.48
2022-12-04T05:27:29.661Z,21.90
2022-12-04T05:28:31.663Z,21.40
2022-12-04T05:29:35.978Z,22.23
2022-12-04T05:30:38.266Z,21.75
2022-12-04T05:31:40.074Z,21.70
2022-12-04T05:32:41.913Z,22.08
2022-12-04T05:33:43.667Z,21.85
2022-12-04T05:34:51.658Z,21.70
2022-12-04T05:36:05.905Z,21.40
2022-12-04T05:37:07.659Z,21.48
2022-12-04T05:38:09.388Z,21.48
2022-12-04T05:39:11.117Z,21.58
2022-12-04T05:40:13.035Z,20.97
2022-12-04T05:41:14.774Z,21.08
2022-12-04T05:42:17.143Z,21.88
2022-12-04T05:43:18.995Z,21.55
2022-12-04T05:44:23.117Z,21.02
2022-12-04T05:45:24.822Z,21.65
2022-12-04T05:46:26.679Z,21.73
2022-12-04T05:47:28.439Z,21.55
2022-12-04T05:48:30.170Z,21.33
2022-12-04T05:49:33.845Z,23.15
2022-12-04T05:50:35.542Z,20.37
2022-12-04T05:51:37.331Z,21.50
2022-12-04T05:52:39.532Z,21.05
2022-12-04T05:53:41.235Z,22.50
2022-12-04T05:54:42.972Z,21.65
2022-12-04T05:55:44.693Z,22.05
2022-12-04T05:56:46.735Z,21.63
2022-12-04T05:57:48.500Z,20.92
2022-12-04T05:58:50.260Z,22.67
2022-12-04T05:59:52.050Z,22.50
2022-12-04T06:00:54.110Z,21.00
2022-12-04T06:01:55.913Z,21.27
2022-12-04T06:02:57.741Z,21.27
2022-12-04T06:03:59.568Z,20.85
2022-12-04T06:05:01.307Z,20.48
2022-12-04T06:06:04.493Z,21.55
2022-12-04T06:07:06.961Z,20.98
2022-12-04T06:08:08.986Z,21.27
2022-12-04T06:09:11.863Z,20.30
2022-12-04T06:10:13.600Z,21.67
2022-12-04T06:11:18.448Z,20.77
2022-12-04T06:12:20.193Z,20.27
2022-12-04T06:13:21.958Z,20.42
2022-12-04T06:14:23.808Z,20.88
2022-12-04T06:15:25.529Z,20.95
2022-12-04T06:16:30.784Z,21.55
2022-12-04T06:17:32.556Z,20.15
2022-12-04T06:18:34.261Z,19.92
2022-12-04T06:19:36.006Z,19.98
2022-12-04T06:20:37.858Z,21.67
2022-12-04T06:21:41.611Z,20.90
2022-12-04T06:22:43.318Z,21.33
2022-12-04T06:23:45.103Z,21.33
2022-12-04T06:24:46.959Z,20.95
2022-12-04T06:25:48.692Z,21.33
2022-12-04T06:27:25.734Z,20.80
2022-12-04T06:28:12.599Z,21.40
2022-12-04T06:29:14.455Z,19.75
2022-12-04T06:30:16.196Z,19.73
2022-12-04T06:31:19.054Z,22.63
2022-12-04T06:32:22.011Z,21.27
2022-12-04T06:33:24.149Z,20.30
2022-12-04T06:34:25.844Z,19.92
2022-12-04T06:35:27.598Z,21.60
2022-12-04T06:36:29.320Z,21.35
2022-12-04T06:37:31.074Z,21.30
2022-12-04T06:38:33.404Z,21.23
2022-12-04T06:39:35.731Z,20.35
2022-12-04T06:40:40.369Z,21.73
2022-12-04T06:41:42.118Z,21.50
2022-12-04T06:42:43.831Z,21.20
2022-12-04T06:43:45.920Z,21.35
2022-12-04T06:44:48.826Z,22.15
2022-12-04T06:46:02.916Z,21.08
2022-12-04T06:47:05.332Z,22.42
2022-12-04T06:48:07.106Z,20.48
2022-12-04T06:49:10.529Z,22.33
2022-12-04T06:50:12.413Z,21.90
2022-12-04T06:51:19.737Z,21.63
2022-12-04T06:52:21.439Z,21.27
2022-12-04T06:53:23.180Z,21.37
2022-12-04T06:54:26.065Z,22.73
2022-12-04T06:55:27.834Z,21.80
2022-12-04T06:56:32.989Z,23.00
2022-12-04T06:57:34.749Z,22.55
2022-12-04T06:58:36.848Z,20.83
2022-12-04T06:59:38.858Z,21.10
2022-12-04T07:00:40.653Z,21.45
2022-12-04T07:01:42.537Z,22.23
2022-12-04T07:02:44.342Z,22.85
2022-12-04T07:03:51.314Z,23.00
2022-12-04T07:04:57.158Z,22.10
2022-12-04T07:05:59.087Z,23.25
2022-12-04T07:07:00.855Z,22.48
2022-12-04T07:08:02.673Z,23.17
2022-12-04T07:09:08.190Z,21.52
2022-12-04T07:10:10.317Z,21.92
2022-12-04T07:11:13.157Z,22.67
2022-12-04T07:12:15.344Z,22.30
2022-12-04T07:13:17.055Z,21.52
2022-12-04T07:14:18.817Z,21.57
2022-12-04T07:15:20.580Z,20.77
2022-12-04T07:16:24.687Z,21.52
2022-12-04T07:17:26.494Z,21.90
2022-12-04T07:18:29.426Z,22.42
2022-12-04T07:19:31.184Z,21.05
2022-12-04T07:20:32.945Z,22.50
2022-12-04T07:21:34.831Z,22.10
2022-12-04T07:22:36.576Z,21.60
2022-12-04T07:23:38.630Z,22.27
2022-12-04T07:24:40.398Z,21.40
2022-12-04T07:25:42.085Z,22.70
2022-12-04T07:26:44.041Z,21.25
2022-12-04T07:27:46.369Z,22.48
2022-12-04T07:28:48.392Z,22.02
2022-12-04T07:29:53.119Z,22.55
2022-12-04T07:30:55.014Z,22.20
2022-12-04T07:31:56.859Z,21.52
2022-12-04T07:32:58.658Z,22.92
2022-12-04T07:34:00.508Z,22.92
2022-12-04T07:35:02.551Z,21.93
2022-12-04T07:36:06.855Z,21.52
2022-12-04T07:37:08.549Z,21.95
2022-12-04T07:38:10.262Z,23.15
2022-12-04T07:39:11.992Z,22.75
2022-12-04T07:40:14.282Z,22.52
2022-12-04T07:41:17.232Z,22.40
2022-12-04T07:42:24.075Z,23.05
2022-12-04T07:43:27.174Z,22.85
2022-12-04T07:44:31.749Z,22.33
2022-12-04T07:45:33.518Z,22.17
2022-12-04T07:46:35.361Z,22.60
2022-12-04T07:47:37.255Z,23.20
2022-12-04T07:48:39.042Z,22.27
2022-12-04T07:49:40.781Z,22.65
2022-12-04T07:50:42.516Z,21.90
2022-12-04T07:51:44.274Z,22.85
2022-12-04T07:52:46.052Z,24.15
2022-12-04T07:53:48.996Z,25.75
2022-12-04T07:54:50.691Z,24.73
2022-12-04T07:55:53.089Z,24.80
2022-12-04T07:56:54.965Z,23.08
2022-12-04T07:57:56.687Z,24.48
2022-12-04T07:59:00.031Z,32.47
2022-12-04T08:00:01.845Z,37.70
2022-12-04T08:01:11.244Z,37.72
2022-12-04T08:02:13.992Z,38.47
2022-12-04T08:03:15.730Z,33.88
2022-12-04T08:04:17.509Z,34.75
2022-12-04T08:05:19.460Z,33.03
2022-12-04T08:06:22.969Z,33.93
2022-12-04T08:07:24.709Z,35.08
2022-12-04T08:08:26.437Z,30.23
2022-12-04T08:09:28.192Z,32.60
2022-12-04T08:10:29.902Z,30.95
2022-12-04T08:11:32.025Z,29.13
2022-12-04T08:12:33.762Z,27.85
2022-12-04T08:13:35.906Z,26.52
2022-12-04T08:14:37.784Z,29.90
2022-12-04T08:15:39.520Z,29.45
2022-12-04T08:16:41.265Z,26.87
2022-12-04T08:17:43.063Z,25.42
2022-12-04T08:18:48.416Z,25.45
2022-12-04T08:19:50.326Z,23.50
2022-12-04T08:20:52.043Z,23.60
2022-12-04T08:21:56.654Z,21.58
2022-12-04T08:22:58.437Z,23.80
2022-12-04T08:24:00.755Z,22.08
2022-12-04T08:25:02.567Z,22.95
2022-12-04T08:26:05.236Z,22.33
2022-12-04T08:27:07.123Z,23.53
2022-12-04T08:28:08.990Z,22.35
2022-12-04T08:29:11.316Z,23.70
2022-12-04T08:30:13.609Z,23.77
2022-12-04T08:31:18.929Z,24.58
2022-12-04T08:32:20.789Z,24.30
2022-12-04T08:33:22.646Z,22.80
2022-12-04T08:34:24.813Z,21.85
2022-12-04T08:35:26.564Z,22.10
2022-12-04T08:36:28.941Z,22.67
2022-12-04T08:37:30.766Z,22.47
2022-12-04T08:38:32.494Z,23.45
2022-12-04T08:39:34.191Z,22.00
2022-12-04T08:40:35.983Z,22.45
2022-12-04T08:41:37.745Z,22.77
2022-12-04T08:42:39.501Z,22.63
2022-12-04T08:43:41.621Z,22.45
2022-12-04T08:44:43.338Z,23.00
2022-12-04T08:45:45.210Z,22.98
2022-12-04T08:46:47.056Z,22.13
2022-12-04T08:47:52.436Z,22.77
2022-12-04T08:48:55.165Z,22.38
2022-12-04T08:49:57.221Z,21.52
2022-12-04T08:50:59.806Z,23.58
2022-12-04T08:52:01.535Z,23.95
2022-12-04T08:53:03.297Z,23.23
2022-12-04T08:54:07.753Z,24.10
2022-12-04T08:55:10.151Z,23.38
2022-12-04T08:56:11.923Z,23.67
2022-12-04T08:57:13.678Z,24.33
2022-12-04T08:58:16.055Z,22.70
2022-12-04T08:59:17.784Z,23.83
2022-12-04T09:00:20.442Z,21.92
2022-12-04T09:01:22.545Z,23.98
2022-12-04T09:02:24.375Z,22.75
2022-12-04T09:03:30.697Z,22.25
2022-12-04T09:04:34.524Z,22.30
2022-12-04T09:05:36.307Z,20.90
2022-12-04T09:06:38.229Z,23.10
2022-12-04T09:07:40.100Z,22.80
2022-12-04T09:08:43.048Z,22.67
2022-12-04T09:09:48.180Z,22.02
2022-12-04T09:10:50.288Z,21.83
2022-12-04T09:11:52.101Z,20.85
2022-12-04T09:12:53.822Z,22.20
2022-12-04T09:13:56.232Z,23.08
2022-12-04T09:14:57.998Z,21.33
2022-12-04T09:16:00.210Z,21.83
2022-12-04T09:17:02.104Z,22.85
2022-12-04T09:18:03.905Z,22.17
2022-12-04T09:19:05.694Z,21.63
2022-12-04T09:20:08.636Z,20.52
2022-12-04T09:21:12.487Z,21.38
2022-12-04T09:22:14.211Z,21.95
2022-12-04T09:23:15.976Z,22.90
2022-12-04T09:24:18.028Z,21.42
2022-12-04T09:25:19.777Z,21.52
2022-12-04T09:26:31.618Z,20.58
2022-12-04T09:27:37.511Z,20.15
2022-12-04T09:28:39.202Z,21.77
2022-12-04T09:29:40.936Z,20.57
2022-12-04T09:30:42.692Z,22.70
2022-12-04T09:31:44.553Z,22.65
2022-12-04T09:32:46.372Z,23.88
2022-12-04T09:33:48.218Z,25.23
2022-12-04T09:34:52.804Z,25.45
2022-12-04T09:35:54.842Z,23.73
2022-12-04T09:36:56.593Z,24.13
2022-12-04T09:37:59.245Z,23.52
2022-12-04T09:39:01.055Z,23.70
2022-12-04T09:40:04.871Z,24.37
2022-12-04T09:41:21.907Z,24.45
2022-12-04T09:42:51.476Z,21.70
2022-12-04T09:44:17.219Z,21.83
2022-12-04T09:45:22.641Z,20.95
2022-12-04T09:47:03.063Z,23.27
2022-12-04T09:48:05.209Z,21.45
2022-12-04T09:49:14.547Z,23.15
2022-12-04T09:50:53.527Z,24.75
2022-12-04T09:52:00.258Z,23.80
2022-12-04T09:53:27.431Z,23.33
2022-12-04T09:54:39.797Z,24.33
2022-12-04T09:55:44.827Z,23.00
2022-12-04T09:57:01.550Z,24.08
2022-12-04T09:58:06.969Z,24.73
2022-12-04T09:59:17.231Z,23.30
2022-12-04T10:00:20.371Z,24.15
2022-12-04T10:01:31.176Z,23.55
2022-12-04T10:02:41.511Z,21.75
2022-12-04T10:03:43.581Z,22.88
2022-12-04T10:04:45.488Z,22.27
2022-12-04T10:06:11.716Z,22.20
2022-12-04T10:07:19.279Z,21.98
2022-12-04T10:08:31.837Z,22.20
2022-12-04T10:09:46.666Z,21.63
2022-12-04T10:10:58.866Z,23.05
2022-12-04T10:12:36.577Z,23.20
2022-12-04T10:14:12.174Z,21.63
2022-12-04T10:15:36.729Z,23.25
2022-12-04T10:16:56.664Z,24.40
2022-12-04T10:18:12.687Z,23.60
2022-12-04T10:19:44.979Z,23.70
2022-12-04T10:21:11.415Z,23.38
2022-12-04T10:22:47.282Z,23.77
2022-12-04T10:24:17.046Z,24.27
2022-12-04T10:25:21.799Z,25.65
2022-12-04T10:26:28.732Z,25.60
2022-12-04T10:27:36.094Z,25.83
2022-12-04T10:28:42.919Z,27.10
2022-12-04T10:29:50.153Z,26.02
2022-12-04T10:30:55.306Z,25.17
2022-12-04T10:32:05.252Z,24.75
2022-12-04T10:33:23.731Z,25.95
2022-12-04T10:34:31.087Z,25.88
2022-12-04T10:35:35.350Z,26.73
2022-12-04T10:36:37.138Z,26.65
2022-12-04T10:37:41.333Z,27.38
2022-12-04T10:39:00.248Z,26.60
2022-12-04T10:40:21.406Z,25.27
2022-12-04T10:41:43.292Z,24.92
2022-12-04T10:42:57.253Z,25.57
2022-12-04T10:43:59.056Z,25.55
2022-12-04T10:45:00.939Z,26.27
2022-12-04T10:46:02.736Z,24.98
2022-12-04T10:47:06.271Z,27.55
2022-12-04T10:48:21.676Z,27.92
2022-12-04T10:49:29.322Z,27.45
2022-12-04T10:50:31.098Z,26.15
2022-12-04T10:51:41.150Z,26.77
2022-12-04T10:52:42.997Z,25.52
2022-12-04T10:53:46.206Z,26.37
2022-12-04T10:55:01.123Z,25.90
2022-12-04T10:56:14.858Z,25.77
2022-12-04T10:57:16.709Z,26.90
2022-12-04T10:58:20.492Z,27.95
2022-12-04T10:59:22.731Z,27.63
2022-12-04T11:00:33.917Z,26.67
2022-12-04T11:01:35.792Z,26.23
2022-12-04T11:02:39.322Z,27.33
2022-12-04T11:03:44.733Z,29.55
2022-12-04T11:05:15.479Z,27.33
2022-12-04T11:06:25.459Z,27.35
2022-12-04T11:07:30.672Z,27.70
2022-12-04T11:08:44.788Z,27.80
2022-12-04T11:10:00.135Z,27.75
2022-12-04T11:11:06.301Z,26.88
2022-12-04T11:12:18.206Z,26.90
2022-12-04T11:13:21.053Z,27.25
2022-12-04T11:14:23.417Z,27.67
2022-12-04T11:15:25.551Z,28.30
2022-12-04T11:16:38.586Z,28.80
2022-12-04T11:17:40.677Z,28.60
2022-12-04T11:18:50.455Z,26.70
2022-12-04T11:20:22.901Z,27.30
2022-12-04T11:21:30.799Z,26.50
2022-12-04T11:22:34.561Z,26.20
2022-12-04T11:23:48.741Z,27.42
2022-12-04T11:24:56.385Z,26.48
2022-12-04T11:26:05.166Z,26.50
2022-12-04T11:27:16.599Z,26.25
2022-12-04T11:28:40.700Z,26.20
2022-12-04T11:29:45.250Z,25.27
2022-12-04T11:30:52.949Z,24.98
2022-12-04T11:31:55.834Z,25.88
2022-12-04T11:32:58.176Z,25.20
2022-12-04T11:34:08.086Z,25.23
2022-12-04T11:35:20.930Z,26.70
2022-12-04T11:36:30.461Z,25.85
2022-12-04T11:37:34.517Z,25.30
2022-12-04T11:38:37.929Z,24.92
2022-12-04T11:39:41.937Z,25.83
2022-12-04T11:40:50.433Z,24.88
2022-12-04T11:42:02.301Z,25.73
2022-12-04T11:43:10.226Z,26.02
2022-12-04T11:44:49.370Z,25.33
2022-12-04T11:45:58.401Z,24.52
2022-12-04T11:47:02.628Z,24.77
2022-12-04T11:48:14.775Z,25.10
2022-12-04T11:49:24.810Z,25.88
2022-12-04T11:50:56.729Z,27.58
2022-12-04T11:52:43.587Z,25.10
2022-12-04T11:53:55.577Z,24.40
2022-12-04T11:55:02.426Z,27.20
2022-12-04T11:56:17.439Z,27.02
2022-12-04T11:57:43.987Z,27.92
2022-12-04T11:59:24.259Z,26.27
2022-12-04T12:00:27.525Z,27.48
2022-12-04T12:01:44.462Z,27.38
2022-12-04T12:02:58.621Z,26.33
2022-12-04T12:04:06.295Z,25.42
2022-12-04T12:05:42.084Z,25.30
2022-12-04T12:07:01.358Z,25.77
2022-12-04T12:08:20.267Z,26.42
2022-12-04T12:09:40.372Z,25.58
2022-12-04T12:11:06.178Z,26.08
2022-12-04T12:12:17.495Z,24.83
2022-12-04T12:13:34.248Z,25.48
2022-12-04T12:14:48.879Z,26.35
2022-12-04T12:16:16.933Z,27.00
2022-12-04T12:17:28.096Z,25.13
2022-12-04T12:18:38.867Z,27.57
2022-12-04T12:20:06.607Z,27.40
2022-12-04T12:21:20.294Z,26.30
2022-12-04T12:22:43.332Z,25.50
2022-12-04T12:24:09.684Z,26.42
2022-12-04T12:25:19.255Z,25.48
2022-12-04T12:26:21.276Z,25.60
2022-12-04T12:27:54.284Z,24.40
2022-12-04T12:29:23.734Z,26.35
2022-12-04T12:30:29.099Z,25.77
2022-12-04T12:31:57.798Z,25.20
2022-12-04T12:33:18.956Z,25.90
2022-12-04T12:34:47.530Z,24.98
2022-12-04T12:36:09.347Z,24.98
2022-12-04T12:37:28.202Z,25.60
2022-12-04T12:38:35.229Z,25.48
2022-12-04T12:39:47.931Z,26.52
2022-12-04T12:40:52.692Z,25.88
2022-12-04T12:41:58.433Z,27.10
2022-12-04T12:43:20.915Z,26.75
2022-12-04T12:44:44.536Z,25.50
2022-12-04T12:45:55.397Z,24.33
2022-12-04T12:47:01.367Z,26.30
2022-12-04T12:48:19.097Z,27.20
2022-12-04T12:49:36.387Z,25.88
2022-12-04T12:51:14.764Z,25.83
2022-12-04T12:52:57.166Z,24.02
2022-12-04T12:54:20.907Z,25.48
2022-12-04T12:55:27.102Z,25.00
2022-12-04T12:56:40.510Z,25.65
2022-12-04T12:57:49.994Z,25.80
2022-12-04T12:58:57.497Z,23.98
2022-12-04T13:00:13.669Z,26.88
2022-12-04T13:01:19.687Z,25.08
2022-12-04T13:02:34.422Z,26.15
2022-12-04T13:04:03.646Z,24.02
2022-12-04T13:05:11.961Z,25.10
2022-12-04T13:06:19.157Z,27.48
2022-12-04T13:07:53.066Z,26.83
2022-12-04T13:09:08.140Z,25.92
2022-12-04T13:10:18.745Z,23.90
2022-12-04T13:11:23.556Z,25.02
2022-12-04T13:12:26.914Z,24.40
2022-12-04T13:13:33.007Z,25.48
2022-12-04T13:14:34.778Z,24.70
2022-12-04T13:15:49.306Z,24.23
2022-12-04T13:17:10.256Z,24.40
2022-12-04T13:18:24.739Z,25.33
2022-12-04T13:19:28.466Z,23.80
2022-12-04T13:20:37.318Z,24.05
2022-12-04T13:21:47.616Z,23.10
2022-12-04T13:23:14.129Z,24.55
2022-12-04T13:24:30.954Z,23.67
2022-12-04T13:25:53.725Z,25.40
2022-12-04T13:27:06.849Z,26.50
2022-12-04T13:28:43.705Z,25.55
2022-12-04T13:30:04.899Z,23.85
2022-12-04T13:31:06.570Z,24.08
2022-12-04T13:32:40.153Z,25.20
2022-12-04T13:33:44.686Z,25.92
2022-12-04T13:35:18.004Z,27.10
2022-12-04T13:36:29.886Z,26.52
2022-12-04T13:37:43.562Z,28.23
2022-12-04T13:39:09.566Z,28.55
2022-12-04T13:40:31.273Z,28.13
2022-12-04T13:41:38.245Z,27.13
2022-12-04T13:42:40.077Z,28.95
2022-12-04T13:43:41.751Z,28.90
2022-12-04T13:44:43.767Z,29.92
2022-12-04T13:45:47.088Z,30.73
2022-12-04T13:46:58.033Z,29.13
2022-12-04T13:48:03.015Z,28.80
2022-12-04T13:49:46.033Z,27.13
2022-12-04T13:50:47.806Z,27.05
2022-12-04T13:51:49.951Z,27.58
2022-12-04T13:52:53.532Z,27.70
2022-12-04T13:54:19.753Z,28.30
2022-12-04T13:55:40.478Z,26.10
2022-12-04T13:56:45.022Z,26.23
2022-12-04T13:58:13.030Z,25.75
2022-12-04T13:59:30.962Z,25.97
2022-12-04T14:00:36.784Z,24.48
2022-12-04T14:01:41.711Z,26.35
2022-12-04T14:02:51.328Z,25.70
2022-12-04T14:03:59.505Z,25.75
2022-12-04T14:05:06.140Z,26.10
2022-12-04T14:06:47.196Z,23.77
2022-12-04T14:08:07.896Z,26.67
2022-12-04T14:09:21.335Z,36.42
2022-12-04T14:10:36.471Z,33.50
2022-12-04T14:11:46.670Z,31.13
2022-12-04T14:12:58.354Z,30.35
2022-12-04T14:14:05.055Z,25.83
2022-12-04T14:15:25.512Z,24.48
2022-12-04T14:16:27.319Z,25.80
2022-12-04T14:17:35.191Z,25.73
2022-12-04T14:18:38.048Z,26.75
2022-12-04T14:19:44.775Z,24.73
2022-12-04T14:20:58.968Z,25.90
2022-12-04T14:22:01.294Z,25.52
2022-12-04T14:23:20.006Z,24.97
2022-12-04T14:24:32.152Z,24.15
2022-12-04T14:25:39.828Z,25.30
2022-12-04T14:27:10.611Z,24.85
2022-12-04T14:28:38.701Z,24.65
2022-12-04T14:29:51.939Z,24.67
2022-12-04T14:31:08.895Z,23.65
2022-12-04T14:32:26.796Z,24.00
2022-12-04T14:33:30.796Z,25.02
2022-12-04T14:34:35.387Z,24.08
2022-12-04T14:36:04.648Z,22.90
2022-12-04T14:37:07.212Z,20.63
2022-12-04T14:38:20.230Z,21.27
2022-12-04T14:39:46.931Z,20.85
2022-12-04T14:40:51.827Z,21.80